Main page
METAR-TAF:

METAR-TAF

Airports :

Diori Hamani International Airport

Niamey, Niger

latitude: 13-29N, longitude: 002-10E, elevation: 223 m

Current weather observation

The report was made 32 minutes ago, at 13:00 UTC
Wind 9 kt from the East, varying between East/Northeast and Southeast
Temperature 36°C
Humidity 9%
Pressure 1010 hPa
Visibility 10 km or more
no clouds below 1500 m and no cumulonimbus

METAR: DRRN 151300Z 10009KT 060V130 CAVOK 36/M02 Q1010 NOSIG

Time: 14:32 (13:32 UTC)

Forecast

The report was made 2 hours and 32 minutes ago, at 11:00 UTC
Forecast valid from 15 at 12 UTC to 16 at 18 UTC
Wind 10 kt from the East
Visibility: 8000 m
Temporary
from 15 at 17 UTC to 15 at 20 UTC
Visibility: 4000 m
widespread dust
Temporary
from 16 at 06 UTC to 16 at 12 UTC
Wind 20 kt from the East
Visibility: 4000 m
Blowing dust

TAF: DRRN 151100Z 1512/1618 08010KT 8000 NSC TEMPO 1517/1520 4000 DU TEMPO 1606/1612 10020KT 4000 BLDU

Weather observations and forecasts of more than 4000 airports (METAR and TAF reports).

The available stations are represented by yellow and red dots on the map.

Hover mouse over dot to see the name of the station.

Then click to see weather observations and forecasts.

To change the map : click on the green buttons with a black cross to zoom in, on the green button with a dash to zoom out, or on the green arrows for adjacent maps.


METAR-TAF: